createdAt,value
2017-05-09T00:00:14.084Z,0
2017-05-09T00:01:14.045Z,0
2017-05-09T00:02:13.466Z,0
2017-05-09T00:03:14.324Z,0
2017-05-09T00:04:13.691Z,0
2017-05-09T00:05:13.956Z,0
2017-05-09T00:06:13.322Z,0
2017-05-09T00:07:13.931Z,0
2017-05-09T00:08:14.220Z,0
2017-05-09T00:09:13.867Z,0
2017-05-09T00:10:14.171Z,0
2017-05-09T00:11:14.163Z,0
2017-05-09T00:12:14.123Z,0
2017-05-09T00:13:13.807Z,0
2017-05-09T00:14:14.081Z,0
2017-05-09T00:15:13.163Z,0
2017-05-09T00:16:14.026Z,0
2017-05-09T00:17:13.695Z,0
2017-05-09T00:18:13.982Z,0
2017-05-09T00:19:13.358Z,0
2017-05-09T00:20:13.703Z,0
2017-05-09T00:21:13.916Z,0
2017-05-09T00:22:13.593Z,0
2017-05-09T00:23:13.575Z,0
2017-05-09T00:24:13.543Z,0
2017-05-09T00:25:13.526Z,0
2017-05-09T00:26:13.582Z,0
2017-05-09T00:27:13.508Z,0
2017-05-09T00:28:13.486Z,0
2017-05-09T00:29:13.433Z,0
2017-05-09T00:30:13.520Z,0
2017-05-09T00:31:13.711Z,0
2017-05-09T00:32:13.066Z,0
2017-05-09T00:33:13.036Z,0
2017-05-09T00:34:13.135Z,0
2017-05-09T00:35:13.001Z,0
2017-05-09T00:36:13.592Z,0
2017-05-09T00:37:13.583Z,0
2017-05-09T00:38:13.245Z,0
2017-05-09T00:39:13.593Z,0
2017-05-09T00:40:13.199Z,0
2017-05-09T00:41:12.863Z,0
2017-05-09T00:42:13.458Z,0
2017-05-09T00:43:13.132Z,0
2017-05-09T00:44:13.100Z,0
2017-05-09T00:45:13.393Z,0
2017-05-09T00:46:13.062Z,0
2017-05-09T00:47:13.343Z,0
2017-05-09T00:48:13.343Z,0
2017-05-09T00:49:12.992Z,0
2017-05-09T00:50:12.683Z,0
2017-05-09T00:51:12.943Z,0
2017-05-09T00:52:12.931Z,0
2017-05-09T00:53:12.944Z,0
2017-05-09T00:54:12.895Z,0
2017-05-09T00:55:13.183Z,0
2017-05-09T00:56:12.843Z,0
2017-05-09T00:57:12.825Z,0
2017-05-09T00:58:13.110Z,0
2017-05-09T00:59:12.494Z,0
2017-05-09T01:00:13.042Z,0
2017-05-09T01:01:12.465Z,0
2017-05-09T01:02:12.402Z,0
2017-05-09T01:03:12.683Z,0
2017-05-09T01:04:12.990Z,0
2017-05-09T01:05:12.640Z,0
2017-05-09T01:06:12.303Z,0
2017-05-09T01:07:12.301Z,0
2017-05-09T01:08:12.595Z,0
2017-05-09T01:09:12.570Z,0
2017-05-09T01:10:12.828Z,0
2017-05-09T01:11:12.206Z,0
2017-05-09T01:12:12.890Z,0
2017-05-09T01:13:12.215Z,0
2017-05-09T01:14:12.453Z,0
2017-05-09T01:15:12.410Z,0
2017-05-09T01:16:12.799Z,0
2017-05-09T01:17:12.388Z,0
2017-05-09T01:18:12.381Z,0
2017-05-09T01:19:12.347Z,0
2017-05-09T01:20:12.622Z,0
2017-05-09T01:21:12.272Z,0
2017-05-09T01:22:12.573Z,0
2017-05-09T01:23:12.243Z,0
2017-05-09T01:24:12.234Z,0
2017-05-09T01:25:12.193Z,0
2017-05-09T01:26:12.518Z,0
2017-05-09T01:27:12.213Z,0
2017-05-09T01:28:12.133Z,0
2017-05-09T01:29:12.434Z,0
2017-05-09T01:30:12.455Z,0
2017-05-09T01:31:12.104Z,0
2017-05-09T01:32:12.392Z,0
2017-05-09T01:33:12.016Z,0
2017-05-09T01:34:12.314Z,0
2017-05-09T01:35:11.982Z,0
2017-05-09T01:36:11.943Z,0
2017-05-09T01:37:12.254Z,0
2017-05-09T01:38:12.323Z,0
2017-05-09T01:39:12.204Z,0
2017-05-09T01:40:12.164Z,0
2017-05-09T01:41:12.159Z,0
2017-05-09T01:42:12.133Z,0
2017-05-09T01:43:11.808Z,0
2017-05-09T01:44:11.765Z,0
2017-05-09T01:45:12.122Z,0
2017-05-09T01:46:11.443Z,0
2017-05-09T01:47:11.713Z,0
2017-05-09T01:48:11.683Z,0
2017-05-09T01:49:12.038Z,0
2017-05-09T01:50:11.964Z,0
2017-05-09T01:51:11.923Z,0
2017-05-09T01:52:11.586Z,0
2017-05-09T01:53:11.274Z,0
2017-05-09T01:54:11.244Z,0
2017-05-09T01:55:11.211Z,0
2017-05-09T01:56:11.500Z,0
2017-05-09T01:57:11.292Z,0
2017-05-09T01:58:11.463Z,0
2017-05-09T01:59:11.136Z,0
2017-05-09T02:00:11.412Z,0
2017-05-09T02:01:11.717Z,0
2017-05-09T02:02:11.691Z,0
2017-05-09T02:03:11.383Z,0
2017-05-09T02:04:10.710Z,0
2017-05-09T02:05:11.412Z,0
2017-05-09T02:06:11.643Z,0
2017-05-09T02:07:10.785Z,0
2017-05-09T02:08:11.573Z,0
2017-05-09T02:09:11.223Z,0
2017-05-09T02:10:11.609Z,0
2017-05-09T02:11:11.585Z,0
2017-05-09T02:12:11.164Z,0
2017-05-09T02:13:11.233Z,0
2017-05-09T02:14:11.180Z,0
2017-05-09T02:15:11.181Z,0
2017-05-09T02:16:10.755Z,0
2017-05-09T02:17:11.084Z,0
2017-05-09T02:18:10.710Z,0
2017-05-09T02:19:11.022Z,0
2017-05-09T02:20:11.274Z,0
2017-05-09T02:21:10.943Z,0
2017-05-09T02:22:10.932Z,0
2017-05-09T02:23:11.207Z,0
2017-05-09T02:24:11.030Z,0
2017-05-09T02:25:10.911Z,0
2017-05-09T02:26:10.935Z,0
2017-05-09T02:27:10.930Z,0
2017-05-09T02:28:11.081Z,0
2017-05-09T02:29:10.777Z,0
2017-05-09T02:30:10.754Z,0
2017-05-09T02:31:11.033Z,0
2017-05-09T02:32:10.682Z,0
2017-05-09T02:33:10.659Z,0
2017-05-09T02:34:10.647Z,0
2017-05-09T02:35:10.660Z,0
2017-05-09T02:36:10.594Z,0
2017-05-09T02:37:10.250Z,0
2017-05-09T02:38:10.543Z,0
2017-05-09T02:39:10.523Z,0
2017-05-09T02:40:10.187Z,0
2017-05-09T02:41:10.797Z,0
2017-05-09T02:42:10.780Z,0
2017-05-09T02:43:10.544Z,0
2017-05-09T02:44:10.431Z,0
2017-05-09T02:45:10.081Z,0
2017-05-09T02:46:10.424Z,0
2017-05-09T02:47:10.032Z,0
2017-05-09T02:48:10.052Z,0
2017-05-09T02:49:10.286Z,0
2017-05-09T02:50:10.275Z,0
2017-05-09T02:51:10.347Z,0
2017-05-09T02:52:10.253Z,0
2017-05-09T02:53:10.217Z,0
2017-05-09T02:54:09.874Z,0
2017-05-09T02:55:10.159Z,0
2017-05-09T02:56:10.442Z,0
2017-05-09T02:57:10.127Z,0
2017-05-09T02:58:10.085Z,0
2017-05-09T02:59:09.764Z,0
2017-05-09T03:00:09.757Z,0
2017-05-09T03:01:10.011Z,0
2017-05-09T03:02:10.005Z,0
2017-05-09T03:03:10.290Z,0
2017-05-09T03:04:09.962Z,0
2017-05-09T03:05:09.934Z,0
2017-05-09T03:06:09.902Z,0
2017-05-09T03:07:09.882Z,0
2017-05-09T03:08:10.163Z,0
2017-05-09T03:09:09.832Z,0
2017-05-09T03:10:09.813Z,0
2017-05-09T03:11:09.795Z,0
2017-05-09T03:12:10.073Z,4
2017-05-09T03:13:10.052Z,4
2017-05-09T03:14:10.031Z,0
2017-05-09T03:15:09.732Z,0
2017-05-09T03:16:09.992Z,4
2017-05-09T03:17:09.952Z,4
2017-05-09T03:18:09.933Z,4
2017-05-09T03:19:09.944Z,4
2017-05-09T03:20:09.576Z,8
2017-05-09T03:21:09.880Z,4
2017-05-09T03:22:09.848Z,8
2017-05-09T03:23:09.852Z,8
2017-05-09T03:24:09.796Z,8
2017-05-09T03:25:09.802Z,8
2017-05-09T03:26:09.783Z,12
2017-05-09T03:27:09.461Z,12
2017-05-09T03:28:09.714Z,16
2017-05-09T03:29:09.461Z,20
2017-05-09T03:30:09.361Z,20
2017-05-09T03:31:09.743Z,20
2017-05-09T03:32:09.669Z,24
2017-05-09T03:33:09.709Z,28
2017-05-09T03:34:09.266Z,32
2017-05-09T03:35:09.234Z,36
2017-05-09T03:36:09.530Z,40
2017-05-09T03:37:09.686Z,44
2017-05-09T03:38:08.866Z,52
2017-05-09T03:39:09.170Z,56
2017-05-09T03:40:09.122Z,60
2017-05-09T03:41:09.425Z,64
2017-05-09T03:42:09.125Z,72
2017-05-09T03:43:09.396Z,80
2017-05-09T03:44:09.353Z,84
2017-05-09T03:45:09.081Z,88
2017-05-09T03:46:08.675Z,96
2017-05-09T03:47:09.313Z,108
2017-05-09T03:48:09.246Z,116
2017-05-09T03:49:08.926Z,124
2017-05-09T03:50:08.892Z,136
2017-05-09T03:51:09.176Z,148
2017-05-09T03:52:08.914Z,156
2017-05-09T03:53:09.212Z,168
2017-05-09T03:54:08.861Z,176
2017-05-09T03:55:08.781Z,192
2017-05-09T03:56:09.112Z,204
2017-05-09T03:57:08.851Z,216
2017-05-09T03:58:09.042Z,232
2017-05-09T03:59:09.096Z,244
2017-05-09T04:00:08.685Z,260
2017-05-09T04:01:08.694Z,276
2017-05-09T04:02:08.722Z,292
2017-05-09T04:03:08.642Z,312
2017-05-09T04:04:08.867Z,328
2017-05-09T04:05:08.851Z,352
2017-05-09T04:06:08.546Z,376
2017-05-09T04:07:08.525Z,392
2017-05-09T04:08:08.889Z,416
2017-05-09T04:09:08.775Z,444
2017-05-09T04:10:08.745Z,472
2017-05-09T04:11:08.389Z,496
2017-05-09T04:12:08.398Z,520
2017-05-09T04:13:08.352Z,540
2017-05-09T04:14:08.352Z,560
2017-05-09T04:15:07.700Z,588
2017-05-09T04:16:08.669Z,616
2017-05-09T04:17:08.562Z,636
2017-05-09T04:18:08.252Z,664
2017-05-09T04:19:07.898Z,684
2017-05-09T04:20:08.492Z,704
2017-05-09T04:21:08.472Z,720
2017-05-09T04:22:08.453Z,732
2017-05-09T04:23:08.443Z,752
2017-05-09T04:24:07.801Z,772
2017-05-09T04:25:08.074Z,792
2017-05-09T04:26:08.363Z,812
2017-05-09T04:27:08.326Z,832
2017-05-09T04:28:07.698Z,852
2017-05-09T04:29:07.972Z,876
2017-05-09T04:30:07.954Z,908
2017-05-09T04:31:08.251Z,940
2017-05-09T04:32:07.917Z,1000
2017-05-09T04:33:08.192Z,1056
2017-05-09T04:34:07.884Z,1100
2017-05-09T04:35:08.141Z,1136
2017-05-09T04:36:07.812Z,1164
2017-05-09T04:37:07.482Z,1184
2017-05-09T04:38:07.512Z,1212
2017-05-09T04:39:07.453Z,1232
2017-05-09T04:40:07.741Z,1252
2017-05-09T04:41:08.003Z,1272
2017-05-09T04:42:08.000Z,1288
2017-05-09T04:43:07.650Z,1304
2017-05-09T04:44:07.374Z,1320
2017-05-09T04:45:07.919Z,1340
2017-05-09T04:46:07.583Z,1356
2017-05-09T04:47:07.902Z,1368
2017-05-09T04:48:07.543Z,1384
2017-05-09T04:49:07.512Z,1376
2017-05-09T04:50:07.184Z,1428
2017-05-09T04:51:07.757Z,1452
2017-05-09T04:52:06.832Z,1464
2017-05-09T04:53:07.423Z,1476
2017-05-09T04:54:07.102Z,1492
2017-05-09T04:55:07.383Z,1508
2017-05-09T04:56:07.054Z,1524
2017-05-09T04:57:07.333Z,1548
2017-05-09T04:58:07.313Z,1572
2017-05-09T04:59:07.593Z,1596
2017-05-09T05:00:07.273Z,1620
2017-05-09T05:01:07.534Z,1604
2017-05-09T05:02:07.303Z,1696
2017-05-09T05:03:07.481Z,1712
2017-05-09T05:04:07.202Z,1772
2017-05-09T05:05:07.137Z,1808
2017-05-09T05:06:07.444Z,1856
2017-05-09T05:07:06.792Z,1888
2017-05-09T05:08:07.403Z,1912
2017-05-09T05:09:07.381Z,1876
2017-05-09T05:10:07.370Z,1876
2017-05-09T05:11:07.320Z,1876
2017-05-09T05:12:07.012Z,1840
2017-05-09T05:13:07.264Z,1876
2017-05-09T05:14:06.933Z,1896
2017-05-09T05:15:06.606Z,1916
2017-05-09T05:16:06.882Z,1960
2017-05-09T05:17:06.908Z,1988
2017-05-09T05:18:06.841Z,2016
2017-05-09T05:19:07.142Z,2092
2017-05-09T05:20:06.852Z,2112
2017-05-09T05:21:06.774Z,2140
2017-05-09T05:22:07.060Z,2168
2017-05-09T05:23:06.775Z,2200
2017-05-09T05:24:07.025Z,2188
2017-05-09T05:25:06.681Z,2236
2017-05-09T05:26:06.992Z,2248
2017-05-09T05:27:07.025Z,2184
2017-05-09T05:28:06.382Z,2168
2017-05-09T05:29:06.913Z,2172
2017-05-09T05:30:06.943Z,2200
2017-05-09T05:31:06.259Z,2280
2017-05-09T05:32:06.534Z,2332
2017-05-09T05:33:06.492Z,2388
2017-05-09T05:34:06.488Z,2444
2017-05-09T05:35:06.443Z,2500
2017-05-09T05:36:06.433Z,2548
2017-05-09T05:37:06.117Z,2580
2017-05-09T05:38:06.082Z,2612
2017-05-09T05:39:06.673Z,2640
2017-05-09T05:40:06.746Z,2656
2017-05-09T05:41:06.025Z,2696
2017-05-09T05:42:06.614Z,2700
2017-05-09T05:43:06.712Z,2732
2017-05-09T05:44:06.270Z,2748
2017-05-09T05:45:05.616Z,2756
2017-05-09T05:46:06.224Z,2784
2017-05-09T05:47:06.503Z,2812
2017-05-09T05:48:06.511Z,2828
2017-05-09T05:49:06.122Z,2772
2017-05-09T05:50:06.443Z,2864
2017-05-09T05:51:06.104Z,2872
2017-05-09T05:52:06.425Z,2884
2017-05-09T05:53:06.063Z,2896
2017-05-09T05:54:06.044Z,2912
2017-05-09T05:55:06.446Z,2944
2017-05-09T05:56:06.392Z,2880
2017-05-09T05:57:06.110Z,2872
2017-05-09T05:58:05.945Z,2924
2017-05-09T05:59:06.243Z,2992
2017-05-09T06:00:06.253Z,3044
2017-05-09T06:01:05.583Z,3164
2017-05-09T06:02:05.556Z,3244
2017-05-09T06:03:05.831Z,3236
2017-05-09T06:04:05.505Z,3244
2017-05-09T06:05:05.789Z,3260
2017-05-09T06:06:05.752Z,3304
2017-05-09T06:07:06.104Z,3276
2017-05-09T06:08:05.722Z,3228
2017-05-09T06:09:05.436Z,3208
2017-05-09T06:10:05.364Z,3276
2017-05-09T06:11:05.662Z,3268
2017-05-09T06:12:05.085Z,3316
2017-05-09T06:13:05.915Z,3484
2017-05-09T06:14:05.604Z,3620
2017-05-09T06:15:05.602Z,3592
2017-05-09T06:16:05.922Z,3588
2017-05-09T06:17:05.832Z,3604
2017-05-09T06:18:05.831Z,3612
2017-05-09T06:19:05.253Z,3600
2017-05-09T06:20:05.543Z,3572
2017-05-09T06:21:05.753Z,3584
2017-05-09T06:22:05.215Z,3600
2017-05-09T06:23:05.522Z,3640
2017-05-09T06:24:05.498Z,3660
2017-05-09T06:25:05.662Z,3708
2017-05-09T06:26:05.712Z,3732
2017-05-09T06:27:05.035Z,3720
2017-05-09T06:28:05.404Z,3720
2017-05-09T06:29:05.393Z,3732
2017-05-09T06:30:05.356Z,3752
2017-05-09T06:31:04.977Z,3780
2017-05-09T06:32:04.893Z,3824
2017-05-09T06:33:05.204Z,3556
2017-05-09T06:34:05.165Z,3612
2017-05-09T06:35:04.921Z,3860
2017-05-09T06:36:05.434Z,3828
2017-05-09T06:37:04.917Z,3828
2017-05-09T06:38:04.825Z,4028
2017-05-09T06:39:05.064Z,4240
2017-05-09T06:40:05.048Z,4220
2017-05-09T06:41:05.030Z,4184
2017-05-09T06:42:05.299Z,4184
2017-05-09T06:43:05.052Z,4200
2017-05-09T06:44:04.651Z,4212
2017-05-09T06:45:04.622Z,4228
2017-05-09T06:46:05.236Z,4240
2017-05-09T06:47:05.261Z,4236
2017-05-09T06:48:05.301Z,4256
2017-05-09T06:49:04.866Z,4236
2017-05-09T06:50:04.830Z,4304
2017-05-09T06:51:05.192Z,4452
2017-05-09T06:52:05.092Z,4496
2017-05-09T06:53:05.082Z,4484
2017-05-09T06:54:05.054Z,4512
2017-05-09T06:55:05.053Z,4492
2017-05-09T06:56:05.013Z,4584
2017-05-09T06:57:05.034Z,4668
2017-05-09T06:58:04.993Z,4620
2017-05-09T06:59:05.073Z,4680
2017-05-09T07:00:04.937Z,4900
2017-05-09T07:01:04.970Z,5024
2017-05-09T07:02:04.901Z,5104
2017-05-09T07:03:04.578Z,5208
2017-05-09T07:04:04.533Z,5228
2017-05-09T07:05:04.213Z,5252
2017-05-09T07:06:04.505Z,5312
2017-05-09T07:07:04.522Z,5376
2017-05-09T07:08:04.453Z,5052
2017-05-09T07:09:04.474Z,5356
2017-05-09T07:10:04.410Z,5388
2017-05-09T07:11:04.692Z,5340
2017-05-09T07:12:04.362Z,5340
2017-05-09T07:13:04.366Z,5372
2017-05-09T07:14:04.323Z,5528
2017-05-09T07:15:04.623Z,5580
2017-05-09T07:16:04.614Z,5684
2017-05-09T07:17:04.593Z,5728
2017-05-09T07:18:03.941Z,5844
2017-05-09T07:19:04.242Z,5928
2017-05-09T07:20:04.519Z,6088
2017-05-09T07:21:04.503Z,6204
2017-05-09T07:22:04.473Z,6224
2017-05-09T07:23:04.465Z,6268
2017-05-09T07:24:03.831Z,6340
2017-05-09T07:25:04.128Z,6296
2017-05-09T07:26:04.080Z,6296
2017-05-09T07:27:04.077Z,6264
2017-05-09T07:28:04.041Z,6084
2017-05-09T07:29:04.041Z,6720
2017-05-09T07:30:03.401Z,7408
2017-05-09T07:31:03.992Z,6800
2017-05-09T07:32:03.983Z,6724
2017-05-09T07:33:04.001Z,6760
2017-05-09T07:34:03.633Z,6748
2017-05-09T07:35:03.902Z,6764
2017-05-09T07:36:03.916Z,6792
2017-05-09T07:37:03.881Z,6828
2017-05-09T07:38:03.852Z,6700
2017-05-09T07:39:04.146Z,7060
2017-05-09T07:40:04.124Z,6996
2017-05-09T07:41:03.779Z,7052
2017-05-09T07:42:03.792Z,7296
2017-05-09T07:43:03.733Z,7560
2017-05-09T07:44:04.053Z,7536
2017-05-09T07:45:04.043Z,7700
2017-05-09T07:46:04.042Z,7684
2017-05-09T07:47:03.389Z,7788
2017-05-09T07:48:03.982Z,7960
2017-05-09T07:49:03.959Z,8564
2017-05-09T07:50:03.631Z,9780
2017-05-09T07:51:03.911Z,16264
2017-05-09T07:52:03.896Z,29760
2017-05-09T07:53:03.893Z,37824
2017-05-09T07:54:03.871Z,65696
2017-05-09T07:55:03.862Z,84672
2017-05-09T07:56:03.843Z,94656
2017-05-09T07:57:03.823Z,92576
2017-05-09T07:58:03.524Z,95648
2017-05-09T07:59:03.783Z,100320
2017-05-09T08:00:03.451Z,101312
2017-05-09T08:01:03.743Z,86688
2017-05-09T08:02:03.733Z,88128
2017-05-09T08:03:03.450Z,100000
2017-05-09T08:04:02.773Z,96192
2017-05-09T08:05:03.375Z,89728
2017-05-09T08:06:03.053Z,83616
2017-05-09T08:07:03.431Z,89536
2017-05-09T08:08:03.342Z,96256
2017-05-09T08:09:03.743Z,105216
2017-05-09T08:10:03.303Z,95232
2017-05-09T08:11:03.311Z,89280
2017-05-09T08:12:03.356Z,92832
2017-05-09T08:13:02.955Z,89824
2017-05-09T08:14:02.930Z,98624
2017-05-09T08:15:03.359Z,104000
2017-05-09T08:16:03.632Z,93568
2017-05-09T08:17:03.593Z,92096
2017-05-09T08:18:02.911Z,97184
2017-05-09T08:19:03.189Z,97920
2017-05-09T08:20:03.491Z,95200
2017-05-09T08:21:02.855Z,95744
2017-05-09T08:22:02.873Z,94464
2017-05-09T08:23:02.845Z,86752
2017-05-09T08:24:03.493Z,85024
2017-05-09T08:25:03.517Z,97632
2017-05-09T08:26:02.852Z,95264
2017-05-09T08:27:32.613Z,90496
2017-05-09T08:28:03.122Z,92096
2017-05-09T08:29:03.092Z,92192
2017-05-09T08:30:02.841Z,85888
2017-05-09T08:31:03.143Z,88096
2017-05-09T08:32:03.382Z,92256
2017-05-09T08:33:03.073Z,89504
2017-05-09T08:34:03.074Z,86880
2017-05-09T08:35:03.064Z,89248
2017-05-09T08:36:02.743Z,89632
2017-05-09T08:37:03.375Z,88096
2017-05-09T08:38:03.350Z,86560
2017-05-09T08:39:02.844Z,88416
2017-05-09T08:40:03.045Z,87584
2017-05-09T08:41:02.728Z,88128
2017-05-09T08:42:03.341Z,92096
2017-05-09T08:43:03.311Z,89920
2017-05-09T08:44:03.324Z,85536
2017-05-09T08:45:02.752Z,88864
2017-05-09T08:46:02.992Z,84064
2017-05-09T08:47:02.982Z,89376
2017-05-09T08:48:03.285Z,88672
2017-05-09T08:49:03.035Z,86656
2017-05-09T08:50:03.280Z,87712
2017-05-09T08:51:03.282Z,89600
2017-05-09T08:52:03.012Z,90752
2017-05-09T08:53:02.955Z,85504
2017-05-09T08:54:02.966Z,85664
2017-05-09T08:55:02.955Z,86240
2017-05-09T08:56:02.941Z,84864
2017-05-09T08:57:02.933Z,90432
2017-05-09T08:58:03.299Z,89696
2017-05-09T08:59:02.626Z,86048
2017-05-09T09:00:02.612Z,87232
2017-05-09T09:01:03.282Z,86016
2017-05-09T09:02:02.914Z,88448
2017-05-09T09:03:03.223Z,85120
2017-05-09T09:04:03.231Z,87872
2017-05-09T09:05:03.254Z,85600
2017-05-09T09:06:02.902Z,83680
2017-05-09T09:07:03.289Z,85344
2017-05-09T09:08:03.195Z,79776
2017-05-09T09:09:02.875Z,83424
2017-05-09T09:10:02.873Z,81856
2017-05-09T09:11:02.572Z,81056
2017-05-09T09:12:02.570Z,81664
2017-05-09T09:13:02.854Z,76800
2017-05-09T09:14:02.644Z,80448
2017-05-09T09:15:03.161Z,82112
2017-05-09T09:16:02.843Z,78880
2017-05-09T09:17:02.872Z,80192
2017-05-09T09:18:02.831Z,76864
2017-05-09T09:19:02.837Z,75648
2017-05-09T09:20:02.848Z,77824
2017-05-09T09:21:02.532Z,79136
2017-05-09T09:22:02.535Z,76000
2017-05-09T09:23:02.841Z,76448
2017-05-09T09:24:02.834Z,78048
2017-05-09T09:25:02.521Z,76928
2017-05-09T09:26:02.825Z,73600
2017-05-09T09:27:02.506Z,67776
2017-05-09T09:28:02.813Z,75616
2017-05-09T09:29:02.814Z,76992
2017-05-09T09:30:03.091Z,69248
2017-05-09T09:31:03.232Z,72448
2017-05-09T09:32:02.494Z,75872
2017-05-09T09:33:02.800Z,72704
2017-05-09T09:34:03.175Z,73376
2017-05-09T09:35:03.092Z,69312
2017-05-09T09:36:03.074Z,72320
2017-05-09T09:37:03.092Z,76800
2017-05-09T09:38:02.752Z,71008
2017-05-09T09:39:03.054Z,73984
2017-05-09T09:40:02.754Z,73120
2017-05-09T09:41:02.747Z,68224
2017-05-09T09:42:03.058Z,70272
2017-05-09T09:43:02.757Z,69248
2017-05-09T09:44:03.043Z,67424
2017-05-09T09:45:02.434Z,64512
2017-05-09T09:46:03.043Z,65344
2017-05-09T09:47:03.033Z,61344
2017-05-09T09:48:02.713Z,59232
2017-05-09T09:49:02.753Z,56576
2017-05-09T09:50:02.707Z,49760
2017-05-09T09:51:02.684Z,57920
2017-05-09T09:52:02.388Z,54816
2017-05-09T09:53:02.683Z,54112
2017-05-09T09:54:02.682Z,14236
2017-05-09T09:55:02.684Z,10088
2017-05-09T09:56:02.665Z,57088
2017-05-09T09:57:02.693Z,59776
2017-05-09T09:58:02.743Z,58944
2017-05-09T09:59:02.952Z,58080
2017-05-09T10:00:02.947Z,56096
2017-05-09T10:01:02.635Z,54496
2017-05-09T10:02:02.683Z,55008
2017-05-09T10:03:02.909Z,56160
2017-05-09T10:04:02.312Z,57024
2017-05-09T10:05:02.605Z,54368
2017-05-09T10:06:02.296Z,51072
2017-05-09T10:07:02.583Z,56128
2017-05-09T10:08:02.624Z,51488
2017-05-09T10:09:02.272Z,45280
2017-05-09T10:10:02.575Z,40896
2017-05-09T10:11:02.572Z,20320
2017-05-09T10:12:02.910Z,12304
2017-05-09T10:13:02.545Z,11660
2017-05-09T10:14:02.556Z,11556
2017-05-09T10:15:02.537Z,11620
2017-05-09T10:16:02.523Z,11656
2017-05-09T10:17:02.823Z,11588
2017-05-09T10:18:02.802Z,11812
2017-05-09T10:19:02.812Z,12020
2017-05-09T10:20:02.483Z,12172
2017-05-09T10:21:02.796Z,12052
2017-05-09T10:22:02.784Z,11840
2017-05-09T10:23:02.467Z,11812
2017-05-09T10:24:02.753Z,11180
2017-05-09T10:25:02.741Z,11436
2017-05-09T10:26:02.757Z,11412
2017-05-09T10:27:02.112Z,11468
2017-05-09T10:28:02.713Z,11420
2017-05-09T10:29:02.400Z,11284
2017-05-09T10:30:02.736Z,11144
2017-05-09T10:31:02.384Z,11028
2017-05-09T10:32:02.674Z,11228
2017-05-09T10:33:02.667Z,11216
2017-05-09T10:34:02.671Z,11144
2017-05-09T10:35:02.334Z,11040
2017-05-09T10:36:02.642Z,11000
2017-05-09T10:37:02.630Z,11164
2017-05-09T10:38:02.359Z,6968
2017-05-09T10:39:01.694Z,11612
2017-05-09T10:40:02.294Z,8496
2017-05-09T10:41:02.604Z,7004
2017-05-09T10:42:02.610Z,6844
2017-05-09T10:43:01.960Z,6720
2017-05-09T10:44:02.584Z,6664
2017-05-09T10:45:02.551Z,6656
2017-05-09T10:46:02.539Z,6788
2017-05-09T10:47:02.005Z,6788
2017-05-09T10:48:02.552Z,6772
2017-05-09T10:49:02.522Z,6904
2017-05-09T10:50:02.523Z,7004
2017-05-09T10:51:02.505Z,10788
2017-05-09T10:52:02.171Z,7352
2017-05-09T10:53:02.609Z,7224
2017-05-09T10:54:02.152Z,7780
2017-05-09T10:55:02.546Z,7368
2017-05-09T10:56:02.453Z,7644
2017-05-09T10:57:02.123Z,8004
2017-05-09T10:58:02.413Z,8236
2017-05-09T10:59:01.801Z,8304
2017-05-09T11:00:02.389Z,8556
2017-05-09T11:01:02.453Z,8960
2017-05-09T11:02:02.042Z,9364
2017-05-09T11:03:02.122Z,12992
2017-05-09T11:04:02.042Z,13428
2017-05-09T11:05:02.383Z,10492
2017-05-09T11:06:01.979Z,9088
2017-05-09T11:07:01.980Z,10384
2017-05-09T11:08:01.975Z,12900
2017-05-09T11:09:02.282Z,12576
2017-05-09T11:10:01.942Z,12528
2017-05-09T11:11:02.292Z,8060
2017-05-09T11:12:02.262Z,7656
2017-05-09T11:13:02.254Z,7332
2017-05-09T11:14:02.213Z,7052
2017-05-09T11:15:02.221Z,6824
2017-05-09T11:16:02.181Z,6816
2017-05-09T11:17:02.159Z,6972
2017-05-09T11:18:02.192Z,6996
2017-05-09T11:19:02.132Z,6908
2017-05-09T11:20:02.154Z,6832
2017-05-09T11:21:02.121Z,6724
2017-05-09T11:22:02.161Z,6596
2017-05-09T11:23:02.095Z,6504
2017-05-09T11:24:01.772Z,6612
2017-05-09T11:25:01.469Z,7016
2017-05-09T11:26:02.043Z,11184
2017-05-09T11:27:01.727Z,11392
2017-05-09T11:28:01.713Z,11732
2017-05-09T11:29:01.703Z,11224
2017-05-09T11:30:01.583Z,11708
2017-05-09T11:31:01.681Z,11308
2017-05-09T11:32:01.982Z,11312
2017-05-09T11:33:01.672Z,11292
2017-05-09T11:34:01.956Z,11400
2017-05-09T11:35:01.641Z,7976
2017-05-09T11:36:01.929Z,7140
2017-05-09T11:37:01.617Z,7152
2017-05-09T11:38:01.903Z,6996
2017-05-09T11:39:01.873Z,6852
2017-05-09T11:40:01.333Z,6868
2017-05-09T11:41:01.545Z,7032
2017-05-09T11:42:01.582Z,7212
2017-05-09T11:43:01.608Z,7232
2017-05-09T11:44:01.516Z,7092
2017-05-09T11:45:01.501Z,6856
2017-05-09T11:46:01.473Z,6472
2017-05-09T11:47:01.543Z,6160
2017-05-09T11:48:01.468Z,5968
2017-05-09T11:49:01.754Z,5824
2017-05-09T11:50:01.121Z,5708
2017-05-09T11:51:01.483Z,5672
2017-05-09T11:52:01.698Z,5568
2017-05-09T11:53:01.383Z,5428
2017-05-09T11:54:00.768Z,5388
2017-05-09T11:55:01.341Z,5384
2017-05-09T11:56:01.664Z,5516
2017-05-09T11:57:01.653Z,5860
2017-05-09T11:58:01.614Z,6124
2017-05-09T11:59:01.323Z,6388
2017-05-09T12:00:01.393Z,6660
2017-05-09T12:01:01.583Z,6796
2017-05-09T12:02:01.270Z,6960
2017-05-09T12:03:01.255Z,7208
2017-05-09T12:04:01.554Z,9324
2017-05-09T12:05:01.523Z,8188
2017-05-09T12:06:00.897Z,8016
2017-05-09T12:07:01.551Z,7984
2017-05-09T12:08:00.857Z,8256
2017-05-09T12:09:01.465Z,8316
2017-05-09T12:10:00.853Z,9828
2017-05-09T12:11:00.824Z,7452
2017-05-09T12:12:01.561Z,7460
2017-05-09T12:13:01.503Z,7532
2017-05-09T12:14:01.420Z,9076
2017-05-09T12:15:01.382Z,9744
2017-05-09T12:16:01.129Z,10564
2017-05-09T12:17:01.378Z,9944
2017-05-09T12:18:00.730Z,8924
2017-05-09T12:19:00.698Z,7460
2017-05-09T12:20:01.385Z,7008
2017-05-09T12:21:01.308Z,8948
2017-05-09T12:22:01.271Z,7692
2017-05-09T12:23:00.676Z,7224
2017-05-09T12:24:01.295Z,6956
2017-05-09T12:25:00.942Z,7684
2017-05-09T12:26:01.223Z,10124
2017-05-09T12:27:00.894Z,8856
2017-05-09T12:28:00.928Z,6876
2017-05-09T12:29:01.263Z,6920
2017-05-09T12:30:00.562Z,6904
2017-05-09T12:31:01.184Z,6968
2017-05-09T12:32:01.165Z,8412
2017-05-09T12:33:00.849Z,7636
2017-05-09T12:34:01.184Z,7252
2017-05-09T12:35:01.108Z,7300
2017-05-09T12:36:00.803Z,7388
2017-05-09T12:37:00.465Z,7448
2017-05-09T12:38:00.755Z,7580
2017-05-09T12:39:00.727Z,7512
2017-05-09T12:40:00.739Z,7552
2017-05-09T12:41:00.406Z,8524
2017-05-09T12:42:00.705Z,10876
2017-05-09T12:43:00.999Z,8920
2017-05-09T12:44:00.063Z,9540
2017-05-09T12:45:00.984Z,8492
2017-05-09T12:46:00.634Z,8792
2017-05-09T12:47:00.643Z,9132
2017-05-09T12:48:00.918Z,12680
2017-05-09T12:49:00.308Z,9036
2017-05-09T12:50:00.276Z,8632
2017-05-09T12:51:00.592Z,9152
2017-05-09T12:52:00.881Z,8216
2017-05-09T12:53:00.550Z,7868
2017-05-09T12:54:00.224Z,7524
2017-05-09T12:55:00.839Z,7240
2017-05-09T12:56:00.198Z,6900
2017-05-09T12:57:00.824Z,6508
2017-05-09T12:58:00.779Z,6132
2017-05-09T12:59:00.795Z,5752
2017-05-09T13:00:00.478Z,5456
2017-05-09T13:01:00.428Z,5220
2017-05-09T13:02:00.742Z,5012
2017-05-09T13:03:00.416Z,4804
2017-05-09T13:04:00.695Z,4776
2017-05-09T13:05:00.703Z,4732
2017-05-09T13:06:00.364Z,4724
2017-05-09T13:07:00.378Z,4744
2017-05-09T13:08:00.646Z,4776
2017-05-09T13:09:00.352Z,4820
2017-05-09T13:10:00.326Z,4740
2017-05-09T13:11:00.310Z,4824
2017-05-09T13:12:00.607Z,4824
2017-05-09T13:13:00.288Z,4800
2017-05-09T13:14:00.576Z,4780
2017-05-09T13:15:00.364Z,4732
2017-05-09T13:16:00.541Z,4692
2017-05-09T13:17:00.515Z,4700
2017-05-09T13:18:00.203Z,4772
2017-05-09T13:19:00.203Z,4868
2017-05-09T13:20:00.466Z,4956
2017-05-09T13:21:00.461Z,5072
2017-05-09T13:22:00.456Z,5188
2017-05-09T13:23:00.449Z,5380
2017-05-09T13:24:00.420Z,5736
2017-05-09T13:25:00.412Z,7148
2017-05-09T13:26:00.385Z,6396
2017-05-09T13:27:00.384Z,9820
2017-05-09T13:28:00.048Z,6436
2017-05-09T13:29:00.337Z,6568
2017-05-09T13:30:00.314Z,6704
2017-05-09T13:31:00.327Z,6880
2017-05-09T13:32:00.293Z,7204
2017-05-09T13:33:00.302Z,7152
2017-05-09T13:34:00.288Z,7200
2017-05-09T13:35:00.245Z,7228